Time;durP1;ratioP1;P1;durP2;ratioP2;P2;SDS_P1;SDS_P2;PMS_P1;PMS_P2;Temp;Humidity;BMP_temperature;BMP_pressure;BME280_temperature;BME280_humidity;BME280_pressure;Samples;Min_cycle;Max_cycle;Signal;HPM_P1;HPM_P2
2021/11/24 00:01:50;;;;;;;16.65;14.98;;;6.50;99.90;;;;;;5042329;28;20586;-55
2021/11/24 00:04:16;;;;;;;16.35;14.80;;;6.50;99.90;;;;;;5037931;28;20079;-56
2021/11/24 00:06:42;;;;;;;16.23;14.55;;;6.50;99.90;;;;;;5025151;28;20494;-55
2021/11/24 00:09:08;;;;;;;19.85;16.17;;;6.40;99.90;;;;;;5001434;28;20046;-58
2021/11/24 00:11:34;;;;;;;18.08;16.13;;;6.50;99.90;;;;;;5038747;28;20064;-58
2021/11/24 00:14:00;;;;;;;15.30;13.90;;;6.40;99.90;;;;;;5022134;28;20580;-58
2021/11/24 00:16:26;;;;;;;18.05;16.23;;;6.40;99.90;;;;;;5041615;28;20059;-58
2021/11/24 00:18:52;;;;;;;18.73;15.93;;;6.50;99.90;;;;;;4994641;28;20420;-58
2021/11/24 00:21:19;;;;;;;17.13;15.38;;;6.50;99.90;;;;;;4987698;28;20067;-58
2021/11/24 00:23:47;;;;;;;17.58;15.77;;;6.40;99.90;;;;;;4985630;28;20049;-58
2021/11/24 00:26:13;;;;;;;17.85;15.95;;;6.40;99.90;;;;;;5045502;28;20131;-58
2021/11/24 00:28:39;;;;;;;17.17;15.40;;;6.40;99.90;;;;;;5043656;28;20091;-58
2021/11/24 00:31:06;;;;;;;17.20;15.57;;;6.40;99.90;;;;;;5042117;28;20072;-58
2021/11/24 00:33:33;;;;;;;19.83;16.77;;;6.40;99.90;;;;;;5024170;28;20076;-58
2021/11/24 00:36:00;;;;;;;17.50;15.75;;;6.40;99.90;;;;;;5040740;28;20053;-58
2021/11/24 00:38:26;;;;;;;17.13;15.50;;;6.40;99.90;;;;;;5005288;28;20132;-58
2021/11/24 00:40:52;;;;;;;16.85;15.30;;;6.50;99.90;;;;;;4986706;28;20049;-57
2021/11/24 00:43:21;;;;;;;16.10;14.48;;;6.50;99.90;;;;;;4997488;28;20488;-57
2021/11/24 00:45:48;;;;;;;18.70;17.00;;;6.50;99.90;;;;;;5032755;28;20048;-58
2021/11/24 00:48:14;;;;;;;16.48;14.80;;;6.50;99.90;;;;;;5015093;28;20073;-55
2021/11/24 00:50:41;;;;;;;16.23;14.57;;;6.50;99.90;;;;;;5041962;28;20559;-58
2021/11/24 00:53:07;;;;;;;15.82;14.32;;;6.50;99.90;;;;;;5020608;28;20072;-53
2021/11/24 00:55:33;;;;;;;15.90;14.30;;;6.60;99.90;;;;;;5024500;28;20566;-58
2021/11/24 00:57:59;;;;;;;16.23;14.73;;;6.60;99.90;;;;;;5041166;28;20060;-56
2021/11/24 01:00:26;;;;;;;14.95;13.38;;;6.60;99.90;;;;;;5038070;28;20047;-53
2021/11/24 01:02:52;;;;;;;14.52;13.00;;;6.60;99.90;;;;;;5016634;28;20049;-54
2021/11/24 01:05:18;;;;;;;15.35;13.63;;;6.60;99.90;;;;;;5025312;28;20053;-53
2021/11/24 01:07:44;;;;;;;13.68;12.40;;;6.70;99.90;;;;;;5016662;28;20049;-58
2021/11/24 01:10:11;;;;;;;12.68;11.48;;;6.70;99.90;;;;;;5024398;28;20041;-58
2021/11/24 01:12:39;;;;;;;13.55;12.18;;;6.70;99.90;;;;;;5043542;28;20077;-54
2021/11/24 01:15:06;;;;;;;13.45;12.05;;;6.70;99.90;;;;;;5016957;28;20046;-57
2021/11/24 01:17:32;;;;;;;12.63;11.35;;;6.70;99.90;;;;;;5026877;28;20041;-58
2021/11/24 01:19:58;;;;;;;12.18;10.98;;;6.70;99.90;;;;;;5038215;28;20057;-55
2021/11/24 01:22:24;;;;;;;12.65;10.48;;;6.70;99.90;;;;;;5041791;28;20041;-54
2021/11/24 01:24:50;;;;;;;11.05;9.77;;;6.70;99.90;;;;;;5038022;28;20075;-53
2021/11/24 01:27:16;;;;;;;11.80;8.85;;;6.70;99.90;;;;;;5020169;28;20050;-52
2021/11/24 01:29:43;;;;;;;11.00;9.13;;;6.80;99.90;;;;;;5019257;28;20546;-54
2021/11/24 01:32:09;;;;;;;11.10;9.95;;;6.80;99.90;;;;;;5021913;28;20037;-55
2021/11/24 01:34:35;;;;;;;10.98;9.45;;;6.80;99.90;;;;;;5018667;28;20500;-59
2021/11/24 01:37:01;;;;;;;10.07;9.13;;;6.80;99.90;;;;;;5042946;28;20052;-58
2021/11/24 01:39:27;;;;;;;11.63;10.02;;;6.80;99.90;;;;;;5019210;28;20053;-60
2021/11/24 01:41:53;;;;;;;11.63;9.70;;;6.80;99.90;;;;;;5002191;28;20090;-56
2021/11/24 01:44:24;;;;;;;10.85;9.27;;;6.80;99.90;;;;;;5033727;28;20103;-56
2021/11/24 01:46:58;;;;;;;10.43;9.35;;;6.80;99.90;;;;;;5021994;28;20061;-54
2021/11/24 01:49:25;;;;;;;9.82;8.82;;;6.80;99.90;;;;;;5022898;28;20487;-52
2021/11/24 01:51:52;;;;;;;11.63;9.15;;;6.80;99.90;;;;;;5040681;28;20044;-55
2021/11/24 01:54:19;;;;;;;11.60;9.52;;;6.80;99.90;;;;;;5037519;28;20055;-53
2021/11/24 01:56:46;;;;;;;11.45;9.38;;;6.80;99.90;;;;;;5031373;28;20045;-55
2021/11/24 01:59:13;;;;;;;10.25;9.15;;;6.80;99.90;;;;;;5016530;28;20699;-59
2021/11/24 02:01:42;;;;;;;11.50;8.80;;;6.80;99.90;;;;;;5042711;28;20107;-59
2021/11/24 02:04:09;;;;;;;9.32;8.45;;;6.80;99.90;;;;;;5038714;28;20045;-55
2021/11/24 02:06:35;;;;;;;11.40;10.27;;;6.80;99.90;;;;;;5040475;28;20090;-53
2021/11/24 02:09:02;;;;;;;10.60;9.60;;;6.80;99.90;;;;;;5016790;28;20034;-50
2021/11/24 02:11:28;;;;;;;9.60;8.65;;;6.80;99.90;;;;;;5034040;28;20256;-58
2021/11/24 02:13:54;;;;;;;10.77;9.68;;;6.80;99.90;;;;;;5039467;28;20047;-59
2021/11/24 02:16:20;;;;;;;10.80;9.70;;;6.70;99.90;;;;;;5020825;28;20063;-54
2021/11/24 02:18:47;;;;;;;12.15;9.68;;;6.70;99.90;;;;;;5003266;28;20058;-58
2021/11/24 02:21:13;;;;;;;12.95;9.98;;;6.80;99.90;;;;;;5020124;28;20056;-58
2021/11/24 02:23:39;;;;;;;14.43;10.55;;;6.70;99.90;;;;;;5021636;28;20072;-54
2021/11/24 02:26:05;;;;;;;12.43;10.40;;;6.70;99.90;;;;;;5039788;28;20077;-58
2021/11/24 02:28:31;;;;;;;11.27;9.57;;;6.70;99.90;;;;;;5042187;28;20045;-58
2021/11/24 02:30:57;;;;;;;11.18;10.13;;;6.70;99.90;;;;;;5019141;28;20065;-58
2021/11/24 02:33:23;;;;;;;9.60;8.73;;;6.70;99.90;;;;;;5020840;28;20041;-57
2021/11/24 02:35:50;;;;;;;11.27;9.13;;;6.80;99.90;;;;;;5026360;28;20542;-58
2021/11/24 02:38:17;;;;;;;9.80;8.82;;;6.70;99.90;;;;;;5004615;28;20048;-59
2021/11/24 02:40:43;;;;;;;10.88;9.77;;;6.70;99.90;;;;;;5042656;28;20479;-59
2021/11/24 02:43:10;;;;;;;12.40;10.65;;;6.70;99.90;;;;;;5040374;28;20052;-54
2021/11/24 02:45:37;;;;;;;11.32;10.20;;;6.70;99.90;;;;;;5048551;28;20392;-59
2021/11/24 02:48:05;;;;;;;9.30;8.20;;;6.70;99.90;;;;;;5018813;28;20086;-54
2021/11/24 02:50:31;;;;;;;9.60;8.57;;;6.70;99.90;;;;;;5042049;28;20040;-59
2021/11/24 02:52:58;;;;;;;9.48;8.57;;;6.70;99.90;;;;;;5025633;28;20045;-53
2021/11/24 02:55:24;;;;;;;11.48;9.32;;;6.70;99.90;;;;;;5024403;28;20056;-55
2021/11/24 02:57:52;;;;;;;11.35;8.45;;;6.70;99.90;;;;;;5039469;28;20083;-59
2021/11/24 03:00:27;;;;;;;9.25;8.23;;;6.70;99.90;;;;;;5041340;28;20136;-59
2021/11/24 03:02:54;;;;;;;10.18;9.10;;;6.70;99.90;;;;;;4988906;28;20159;-54
2021/11/24 03:05:23;;;;;;;10.25;8.05;;;6.80;99.90;;;;;;5020543;28;20054;-50
2021/11/24 03:07:50;;;;;;;9.00;8.07;;;6.80;99.90;;;;;;5040929;28;20056;-59
2021/11/24 03:10:20;;;;;;;9.20;7.95;;;6.80;99.90;;;;;;5024615;28;20128;-59
2021/11/24 03:12:46;;;;;;;8.30;7.50;;;6.70;99.90;;;;;;5020944;28;20056;-59
2021/11/24 03:15:12;;;;;;;9.95;8.15;;;6.80;99.90;;;;;;5037857;28;20056;-56
2021/11/24 03:17:38;;;;;;;8.88;7.97;;;6.80;99.90;;;;;;5042407;28;20582;-54
2021/11/24 03:20:08;;;;;;;10.60;8.60;;;6.70;99.90;;;;;;5041412;28;20100;-60
2021/11/24 03:22:35;;;;;;;13.20;8.68;;;6.80;99.90;;;;;;5008564;28;20049;-59
2021/11/24 03:25:01;;;;;;;9.45;8.23;;;6.80;99.90;;;;;;5037605;28;20049;-58
2021/11/24 03:27:36;;;;;;;9.13;8.23;;;6.80;99.90;;;;;;5042726;28;20487;-54
2021/11/24 03:30:08;;;;;;;11.93;9.35;;;6.80;99.90;;;;;;5044067;28;20048;-55
2021/11/24 03:32:34;;;;;;;9.75;8.75;;;6.80;99.90;;;;;;5037700;28;20076;-53
2021/11/24 03:35:00;;;;;;;12.23;9.00;;;6.80;99.90;;;;;;5022992;28;20057;-54
2021/11/24 03:37:26;;;;;;;8.65;7.80;;;6.80;99.90;;;;;;5021394;28;20052;-54
2021/11/24 03:39:52;;;;;;;9.05;8.15;;;6.80;99.90;;;;;;5039955;28;20132;-59
2021/11/24 03:42:19;;;;;;;9.15;7.70;;;6.80;99.90;;;;;;5042047;28;20049;-59
2021/11/24 03:44:45;;;;;;;8.88;7.55;;;6.80;99.90;;;;;;4988198;28;20062;-59
2021/11/24 03:47:12;;;;;;;9.40;7.18;;;6.80;99.90;;;;;;5036129;28;20116;-58
2021/11/24 03:49:38;;;;;;;8.27;6.47;;;6.80;99.90;;;;;;5022949;28;20042;-58
2021/11/24 03:52:06;;;;;;;7.95;7.10;;;6.90;99.90;;;;;;5019841;28;20041;-59
2021/11/24 03:54:32;;;;;;;9.23;7.15;;;6.90;99.90;;;;;;5025684;28;20114;-58
2021/11/24 03:56:59;;;;;;;9.82;8.40;;;6.90;99.90;;;;;;5041982;28;20351;-58
2021/11/24 03:59:25;;;;;;;7.57;6.75;;;6.90;99.90;;;;;;5031079;28;20057;-58
2021/11/24 04:01:51;;;;;;;7.80;7.00;;;6.90;99.90;;;;;;5005969;28;20057;-53
2021/11/24 04:04:17;;;;;;;8.57;7.68;;;6.80;99.90;;;;;;5014985;28;20057;-53
2021/11/24 04:06:43;;;;;;;7.75;6.93;;;6.80;99.90;;;;;;5036033;28;20045;-55
2021/11/24 04:09:09;;;;;;;9.88;7.05;;;6.80;99.90;;;;;;5029108;28;20056;-53
2021/11/24 04:11:35;;;;;;;8.70;6.68;;;6.80;99.90;;;;;;5031841;28;20087;-53
2021/11/24 04:14:02;;;;;;;8.35;7.55;;;6.80;99.90;;;;;;5027664;28;20045;-59
2021/11/24 04:16:28;;;;;;;9.02;7.78;;;6.80;99.90;;;;;;5045804;28;20052;-53
2021/11/24 04:18:55;;;;;;;8.50;7.55;;;6.80;99.90;;;;;;5038431;28;20080;-58
2021/11/24 04:21:22;;;;;;;7.63;6.63;;;6.80;99.90;;;;;;5014579;28;20144;-54
2021/11/24 04:23:48;;;;;;;7.75;6.80;;;6.80;99.90;;;;;;5029722;28;20527;-59
2021/11/24 04:26:15;;;;;;;8.30;6.13;;;6.80;99.90;;;;;;5027030;28;20460;-52
2021/11/24 04:28:41;;;;;;;7.55;6.35;;;6.80;99.90;;;;;;5019098;28;20720;-55
2021/11/24 04:31:09;;;;;;;8.95;7.32;;;6.80;99.90;;;;;;5028617;28;20504;-59
2021/11/24 04:33:37;;;;;;;7.90;6.88;;;6.80;99.90;;;;;;4996695;28;20053;-59
2021/11/24 04:36:05;;;;;;;8.95;6.40;;;6.80;99.90;;;;;;5045487;28;20535;-59
2021/11/24 04:38:31;;;;;;;8.70;6.82;;;6.80;99.90;;;;;;5048262;28;20436;-59
2021/11/24 04:40:57;;;;;;;8.02;6.60;;;6.80;99.90;;;;;;5011415;28;20706;-59
2021/11/24 04:43:28;;;;;;;8.10;6.50;;;6.80;99.90;;;;;;5029239;28;20160;-58
2021/11/24 04:45:55;;;;;;;8.32;6.72;;;6.80;99.90;;;;;;5049569;28;20047;-59
2021/11/24 04:48:23;;;;;;;8.80;7.35;;;6.80;99.90;;;;;;5050128;28;20458;-55
2021/11/24 04:50:49;;;;;;;8.18;7.38;;;6.80;99.90;;;;;;5012201;28;20108;-55
2021/11/24 04:53:15;;;;;;;8.13;7.32;;;6.80;99.90;;;;;;5043793;28;20045;-58
2021/11/24 04:55:41;;;;;;;7.78;6.72;;;6.80;99.90;;;;;;5030993;28;20049;-54
2021/11/24 04:58:08;;;;;;;8.00;7.18;;;6.80;99.90;;;;;;5050070;28;20041;-54
2021/11/24 05:00:34;;;;;;;11.27;7.18;;;6.80;99.90;;;;;;5043081;28;20501;-55
2021/11/24 05:03:00;;;;;;;7.68;6.88;;;6.80;99.90;;;;;;5044972;28;20053;-58
2021/11/24 05:05:29;;;;;;;8.57;7.25;;;6.80;99.90;;;;;;5012495;28;20054;-59
2021/11/24 05:07:57;;;;;;;7.57;6.30;;;6.80;99.90;;;;;;5001017;28;20045;-54
2021/11/24 05:10:24;;;;;;;8.45;6.88;;;6.80;99.90;;;;;;5027833;28;20041;-53
2021/11/24 05:12:50;;;;;;;7.95;5.50;;;6.80;99.90;;;;;;5027329;28;20076;-55
2021/11/24 05:15:20;;;;;;;6.82;5.85;;;6.80;99.90;;;;;;5027482;28;20084;-55
2021/11/24 05:17:50;;;;;;;8.93;6.43;;;6.80;99.90;;;;;;5041042;28;20492;-56
2021/11/24 05:20:20;;;;;;;6.60;5.13;;;6.80;99.90;;;;;;5049269;28;20106;-54
2021/11/24 05:22:49;;;;;;;7.60;6.20;;;6.80;99.90;;;;;;5020655;28;20049;-54
2021/11/24 05:25:15;;;;;;;8.73;6.15;;;6.80;99.90;;;;;;5027319;28;20404;-54
2021/11/24 05:27:42;;;;;;;9.15;6.60;;;6.80;99.90;;;;;;5031507;28;20079;-55
2021/11/24 05:30:09;;;;;;;8.45;7.03;;;6.80;99.90;;;;;;5035895;28;20403;-56
2021/11/24 05:32:37;;;;;;;7.75;6.70;;;6.80;99.90;;;;;;5026464;28;20419;-59
2021/11/24 05:35:04;;;;;;;10.48;6.72;;;6.80;99.90;;;;;;5048626;28;20143;-51
2021/11/24 05:37:31;;;;;;;8.68;6.43;;;6.80;99.90;;;;;;5013634;28;20539;-54
2021/11/24 05:39:58;;;;;;;7.38;6.45;;;6.80;99.90;;;;;;5011101;28;20093;-55
2021/11/24 05:42:26;;;;;;;7.93;6.72;;;6.80;99.90;;;;;;5046121;28;20064;-54
2021/11/24 05:45:02;;;;;;;7.35;6.40;;;6.80;99.90;;;;;;5009204;28;20423;-55
2021/11/24 05:50:15;;;;;;;7.75;6.30;;;6.80;99.90;;;;;;5040409;28;20329;-55
2021/11/24 05:52:41;;;;;;;7.40;6.10;;;6.80;99.90;;;;;;5031303;28;20040;-58
2021/11/24 05:55:07;;;;;;;6.75;5.50;;;6.80;99.90;;;;;;5027016;28;20061;-58
2021/11/24 05:57:33;;;;;;;10.10;5.85;;;6.80;99.90;;;;;;5028404;28;20047;-54
2021/11/24 05:59:59;;;;;;;8.02;5.75;;;6.80;99.90;;;;;;5048332;28;20487;-55
2021/11/24 06:02:25;;;;;;;8.68;6.00;;;6.80;99.90;;;;;;5047212;28;20408;-60
2021/11/24 06:04:51;;;;;;;9.00;6.50;;;6.80;99.90;;;;;;5050683;28;20075;-59
2021/11/24 06:07:18;;;;;;;8.95;6.13;;;6.80;99.90;;;;;;5044263;28;20116;-59
2021/11/24 06:09:44;;;;;;;6.82;5.07;;;6.80;99.90;;;;;;5020994;28;20064;-59
2021/11/24 06:12:10;;;;;;;6.32;5.72;;;6.80;99.90;;;;;;5038775;28;20132;-56
2021/11/24 06:14:36;;;;;;;9.48;6.70;;;6.80;99.90;;;;;;5009312;28;20100;-51
2021/11/24 06:17:02;;;;;;;8.93;6.03;;;6.80;99.90;;;;;;5029263;28;20172;-60
2021/11/24 06:19:28;;;;;;;9.50;6.32;;;6.90;99.90;;;;;;5023572;28;20733;-60
2021/11/24 06:21:54;;;;;;;10.30;4.30;;;6.90;99.90;;;;;;5023537;28;20049;-60
2021/11/24 06:24:21;;;;;;;6.35;5.45;;;6.90;99.90;;;;;;5034768;28;20038;-59
2021/11/24 06:26:47;;;;;;;6.85;5.28;;;6.90;99.90;;;;;;5017305;28;20085;-56
2021/11/24 06:29:13;;;;;;;7.35;5.20;;;6.90;99.90;;;;;;5039355;28;20059;-56
2021/11/24 06:31:39;;;;;;;7.47;5.80;;;6.90;99.90;;;;;;5021611;28;20076;-60
2021/11/24 06:34:05;;;;;;;6.93;5.03;;;6.90;99.90;;;;;;5043709;28;20049;-60
2021/11/24 06:36:31;;;;;;;7.18;5.18;;;6.90;99.90;;;;;;5048212;28;20056;-60
2021/11/24 06:38:57;;;;;;;7.38;5.35;;;6.80;99.90;;;;;;5049807;28;20041;-50
2021/11/24 06:41:23;;;;;;;7.07;5.18;;;6.80;99.90;;;;;;5049947;28;20736;-53
2021/11/24 06:43:50;;;;;;;6.93;5.15;;;6.80;99.90;;;;;;5050182;28;20153;-59
2021/11/24 06:46:16;;;;;;;5.45;3.90;;;6.90;99.90;;;;;;5050583;28;20379;-54
2021/11/24 06:48:42;;;;;;;8.57;4.55;;;6.80;99.90;;;;;;5032768;28;20052;-60
2021/11/24 06:51:09;;;;;;;5.20;3.88;;;6.90;99.90;;;;;;5013414;28;20045;-60
2021/11/24 06:53:35;;;;;;;9.25;4.10;;;6.90;99.90;;;;;;5040745;28;20075;-59
2021/11/24 06:56:01;;;;;;;8.57;3.80;;;6.80;99.90;;;;;;4996821;28;20041;-60
2021/11/24 06:58:27;;;;;;;7.15;4.07;;;6.90;99.90;;;;;;5014076;28;20059;-60
2021/11/24 07:00:54;;;;;;;5.50;3.80;;;6.80;99.90;;;;;;5049432;28;20057;-60
2021/11/24 07:03:20;;;;;;;7.07;3.83;;;6.80;99.90;;;;;;5029265;28;20135;-60
2021/11/24 07:05:46;;;;;;;6.97;3.83;;;6.80;99.90;;;;;;5011744;28;20053;-54
2021/11/24 07:08:12;;;;;;;7.18;3.88;;;6.80;99.90;;;;;;5012533;28;20112;-59
2021/11/24 07:10:38;;;;;;;7.53;3.40;;;6.90;99.90;;;;;;5035814;28;20099;-48
2021/11/24 07:13:04;;;;;;;6.30;3.58;;;6.90;99.90;;;;;;5006207;28;20077;-55
2021/11/24 07:15:32;;;;;;;4.60;3.00;;;6.90;99.90;;;;;;4994218;28;20053;-54
2021/11/24 07:18:02;;;;;;;;;;;6.90;99.90;;;;;;4964398;28;20059;-59
2021/11/24 07:20:29;;;;;;;5.75;2.92;;;6.80;99.90;;;;;;5021001;28;20008;-59
2021/11/24 07:22:55;;;;;;;6.90;3.20;;;6.80;99.90;;;;;;5044168;28;20033;-60
2021/11/24 07:25:22;;;;;;;6.80;2.63;;;6.90;99.90;;;;;;5031202;28;20042;-58
2021/11/24 07:27:49;;;;;;;4.75;3.20;;;6.80;99.90;;;;;;5050105;28;20045;-53
2021/11/24 07:30:18;;;;;;;4.80;2.97;;;6.90;99.90;;;;;;5045310;28;20538;-58
2021/11/24 07:32:44;;;;;;;4.90;2.60;;;6.90;99.90;;;;;;5039676;28;20044;-53
2021/11/24 07:35:11;;;;;;;5.10;3.03;;;6.90;99.90;;;;;;5050110;28;20123;-53
2021/11/24 07:37:38;;;;;;;4.45;2.90;;;6.90;99.90;;;;;;5014660;28;20050;-53
2021/11/24 07:40:07;;;;;;;5.43;2.80;;;6.90;99.90;;;;;;5010806;28;20048;-54
2021/11/24 07:42:33;;;;;;;6.00;3.28;;;6.90;99.90;;;;;;5041275;28;20064;-54
2021/11/24 07:44:59;;;;;;;6.90;3.28;;;6.90;99.90;;;;;;5019264;28;20081;-54
2021/11/24 07:47:25;;;;;;;5.47;2.80;;;6.90;99.90;;;;;;5019435;28;20041;-55
2021/11/24 07:49:51;;;;;;;6.68;3.30;;;6.90;99.90;;;;;;5029497;28;20488;-52
2021/11/24 07:52:18;;;;;;;10.25;3.47;;;7.00;99.90;;;;;;5017332;28;20932;-54
2021/11/24 07:54:44;;;;;;;7.10;3.15;;;7.00;99.90;;;;;;5045158;28;20045;-54
2021/11/24 07:57:11;;;;;;;6.43;3.45;;;7.00;99.90;;;;;;5010538;28;20049;-55
2021/11/24 07:59:37;;;;;;;4.32;2.58;;;7.00;99.90;;;;;;5006747;28;20492;-54
2021/11/24 08:02:04;;;;;;;4.47;2.92;;;7.00;99.90;;;;;;5034422;28;20060;-60
2021/11/24 08:04:30;;;;;;;5.70;3.53;;;7.00;99.90;;;;;;5044152;28;20170;-60
2021/11/24 08:07:00;;;;;;;5.95;3.28;;;7.00;99.90;;;;;;5020930;28;20050;-60
2021/11/24 08:09:26;;;;;;;5.65;3.00;;;7.10;99.90;;;;;;5015331;28;20128;-59
2021/11/24 08:11:53;;;;;;;4.03;3.20;;;7.10;99.90;;;;;;5013295;28;20112;-58
2021/11/24 08:14:19;;;;;;;3.92;3.42;;;7.10;99.90;;;;;;5026338;28;20100;-61
2021/11/24 08:16:46;;;;;;;6.65;3.70;;;7.10;99.90;;;;;;5026730;28;20057;-60
2021/11/24 08:19:12;;;;;;;3.95;3.05;;;7.00;99.90;;;;;;5045740;28;20405;-60
2021/11/24 08:21:38;;;;;;;6.05;3.08;;;7.10;99.90;;;;;;5047252;28;20125;-60
2021/11/24 08:24:05;;;;;;;5.55;3.40;;;7.10;99.90;;;;;;5011795;28;20067;-60
2021/11/24 08:26:31;;;;;;;6.32;3.75;;;7.10;99.90;;;;;;5010311;28;20054;-60
2021/11/24 08:28:57;;;;;;;5.38;3.10;;;7.20;99.90;;;;;;5038382;28;20414;-60
2021/11/24 08:31:23;;;;;;;5.13;3.03;;;7.20;99.90;;;;;;5045650;28;20499;-59
2021/11/24 08:33:49;;;;;;;4.85;3.38;;;7.20;99.90;;;;;;5040234;28;20136;-59
2021/11/24 08:36:16;;;;;;;6.43;3.55;;;7.20;99.90;;;;;;5046148;28;20053;-56
2021/11/24 08:38:43;;;;;;;5.85;3.80;;;7.30;99.90;;;;;;5017451;28;20814;-59
2021/11/24 08:41:12;;;;;;;4.38;3.53;;;7.30;99.90;;;;;;5027469;28;20057;-58
2021/11/24 08:43:39;;;;;;;5.03;3.60;;;7.30;99.90;;;;;;5017414;28;20061;-50
2021/11/24 08:46:06;;;;;;;6.03;3.58;;;7.30;99.90;;;;;;5048780;28;20045;-48
2021/11/24 08:48:32;;;;;;;6.20;3.58;;;7.30;99.90;;;;;;5047066;28;20126;-50
2021/11/24 08:50:59;;;;;;;4.55;3.08;;;7.40;99.90;;;;;;5046743;28;20041;-52
2021/11/24 08:53:25;;;;;;;7.05;3.78;;;7.40;99.90;;;;;;5045652;28;20128;-54
2021/11/24 08:55:52;;;;;;;6.82;3.30;;;7.40;99.90;;;;;;5032662;28;20582;-54
2021/11/24 08:58:18;;;;;;;5.05;3.80;;;7.50;99.90;;;;;;5037042;28;20489;-56
2021/11/24 09:00:44;;;;;;;5.40;3.63;;;7.50;99.90;;;;;;5041581;28;20151;-50
2021/11/24 09:03:11;;;;;;;6.88;4.18;;;7.50;99.90;;;;;;5026585;28;20493;-53
2021/11/24 09:05:37;;;;;;;5.22;3.47;;;7.50;99.90;;;;;;5007075;28;20049;-50
2021/11/24 09:08:04;;;;;;;5.18;4.07;;;7.60;99.90;;;;;;4988448;28;20772;-51
2021/11/24 09:10:34;;;;;;;6.93;4.38;;;7.60;99.90;;;;;;4986966;28;20041;-51
2021/11/24 09:13:00;;;;;;;7.32;4.32;;;7.60;99.90;;;;;;5022974;28;20075;-53
2021/11/24 09:15:27;;;;;;;6.65;4.07;;;7.70;99.90;;;;;;4991854;28;20605;-53
2021/11/24 09:17:53;;;;;;;7.55;4.40;;;7.60;99.90;;;;;;5012127;28;20041;-58
2021/11/24 09:20:24;;;;;;;4.95;4.30;;;7.70;99.90;;;;;;4997570;28;20049;-58
2021/11/24 09:22:51;;;;;;;8.55;4.47;;;7.70;99.90;;;;;;5015141;28;20044;-58
2021/11/24 09:25:21;;;;;;;5.90;4.50;;;7.70;99.90;;;;;;5026350;28;20065;-58
2021/11/24 09:28:11;;;;;;;5.80;4.72;;;7.70;99.90;;;;;;5024613;28;20049;-52
2021/11/24 09:30:39;;;;;;;10.27;4.57;;;7.70;99.90;;;;;;5011823;28;20132;-52
2021/11/24 09:33:05;;;;;;;8.02;4.82;;;7.70;99.90;;;;;;5015407;28;20045;-59
2021/11/24 09:35:32;;;;;;;6.15;4.50;;;7.70;99.90;;;;;;5013917;28;20098;-59
2021/11/24 09:37:59;;;;;;;9.65;5.40;;;7.70;99.90;;;;;;5012725;28;20455;-59
2021/11/24 09:40:25;;;;;;;6.85;4.88;;;7.80;99.90;;;;;;5012121;28;20060;-53
2021/11/24 09:42:56;;;;;;;8.20;5.38;;;7.80;99.90;;;;;;5009502;28;20112;-55
2021/11/24 09:45:22;;;;;;;7.45;5.00;;;7.80;99.90;;;;;;4989817;28;20124;-59
2021/11/24 09:47:50;;;;;;;8.82;5.65;;;7.90;99.90;;;;;;5007157;28;20077;-59
2021/11/24 09:50:22;;;;;;;6.32;5.03;;;7.90;99.90;;;;;;5002309;28;21775;-59
2021/11/24 09:52:49;;;;;;;6.28;5.38;;;7.90;99.90;;;;;;5004955;28;20076;-55
2021/11/24 09:55:15;;;;;;;7.50;5.15;;;8.00;99.90;;;;;;5014712;28;20132;-59
2021/11/24 09:57:43;;;;;;;6.28;4.97;;;8.00;99.90;;;;;;5005428;28;20049;-59
2021/11/24 10:00:10;;;;;;;6.70;5.28;;;8.10;99.90;;;;;;5011108;28;20042;-59
2021/11/24 10:02:39;;;;;;;8.02;5.97;;;8.10;99.90;;;;;;5015681;28;20058;-51
2021/11/24 10:05:06;;;;;;;10.00;6.78;;;8.10;99.90;;;;;;5012991;28;20054;-59
2021/11/24 10:07:32;;;;;;;9.77;5.85;;;8.20;99.90;;;;;;4976454;28;20038;-58
2021/11/24 10:09:58;;;;;;;11.38;6.35;;;8.20;99.90;;;;;;5014427;28;20053;-58
2021/11/24 10:12:24;;;;;;;10.18;6.20;;;8.30;99.90;;;;;;4996744;28;20044;-51
2021/11/24 10:14:50;;;;;;;7.55;6.07;;;8.20;99.90;;;;;;5009913;28;20455;-54
2021/11/24 10:17:23;;;;;;;6.78;6.07;;;8.30;99.90;;;;;;5011830;28;20452;-59
2021/11/24 10:20:05;;;;;;;7.53;6.82;;;8.30;99.90;;;;;;5008386;28;20120;-59
2021/11/24 10:22:32;;;;;;;10.73;7.93;;;8.30;99.90;;;;;;5009265;28;20060;-49
2021/11/24 10:25:11;;;;;;;8.43;7.53;;;8.30;99.90;;;;;;5004847;28;20133;-55
2021/11/24 10:27:43;;;;;;;7.78;6.75;;;8.30;99.90;;;;;;5011804;28;20493;-59
2021/11/24 10:30:20;;;;;;;8.45;7.20;;;8.20;99.90;;;;;;4977336;28;20049;-59
2021/11/24 10:32:47;;;;;;;9.57;6.90;;;8.20;99.90;;;;;;4999372;28;20107;-61
2021/11/24 10:35:13;;;;;;;9.13;7.10;;;8.10;99.90;;;;;;4965014;28;20133;-59
2021/11/24 10:37:40;;;;;;;9.60;7.30;;;8.20;99.90;;;;;;5015830;28;20125;-59
2021/11/24 10:40:08;;;;;;;12.30;8.20;;;8.10;99.90;;;;;;5004556;28;20045;-58
2021/11/24 10:42:37;;;;;;;9.40;8.40;;;8.20;99.90;;;;;;4977929;28;20452;-59
2021/11/24 10:45:18;;;;;;;9.05;7.93;;;8.20;99.90;;;;;;4983904;28;20054;-56
2021/11/24 10:47:56;;;;;;;8.63;7.72;;;8.20;99.90;;;;;;4974029;28;20066;-55
2021/11/24 10:50:28;;;;;;;10.23;7.63;;;8.30;99.90;;;;;;4992075;28;20049;-58
2021/11/24 10:52:54;;;;;;;;;;;8.30;99.90;;;;;;5028184;28;20065;-56
2021/11/24 10:55:27;;;;;;;10.07;7.80;;;8.20;99.90;;;;;;5005923;28;19923;-54
2021/11/24 10:58:26;;;;;;;7.90;6.97;;;8.30;99.90;;;;;;4973854;28;20045;-51
2021/11/24 11:00:57;;;;;;;7.68;6.88;;;8.30;99.90;;;;;;4955368;28;20616;-59
2021/11/24 11:03:41;;;;;;;9.85;7.43;;;8.30;99.90;;;;;;5007765;28;20065;-59
2021/11/24 11:06:08;;;;;;;7.65;6.88;;;8.40;99.90;;;;;;5011702;28;20129;-54
2021/11/24 11:08:34;;;;;;;7.28;6.57;;;8.40;99.90;;;;;;4988880;28;20104;-52
2021/11/24 11:11:05;;;;;;;9.38;6.88;;;8.40;99.90;;;;;;4989972;28;20773;-54
2021/11/24 11:13:32;;;;;;;8.23;7.40;;;8.40;99.90;;;;;;5007913;28;20096;-51
2021/11/24 11:15:58;;;;;;;8.88;7.30;;;8.40;99.90;;;;;;5022718;28;20490;-55
2021/11/24 11:18:32;;;;;;;8.70;7.15;;;8.30;99.90;;;;;;4992449;28;20054;-59
2021/11/24 11:21:05;;;;;;;8.60;7.53;;;8.40;99.90;;;;;;4999614;28;20073;-58
2021/11/24 11:23:38;;;;;;;9.02;7.38;;;8.40;99.90;;;;;;5004979;28;20056;-59
2021/11/24 11:26:16;;;;;;;7.80;6.97;;;8.40;99.90;;;;;;5007709;28;20501;-58
2021/11/24 11:28:50;;;;;;;9.30;6.63;;;8.40;99.90;;;;;;4948706;28;20628;-55
2021/11/24 11:31:18;;;;;;;8.15;7.35;;;8.40;99.90;;;;;;5005425;28;20050;-59
2021/11/24 11:33:47;;;;;;;13.25;7.20;;;8.40;99.90;;;;;;4994775;28;20046;-58
2021/11/24 11:36:13;;;;;;;7.72;6.80;;;8.40;99.90;;;;;;5000366;28;20042;-58
2021/11/24 11:38:46;;;;;;;8.57;7.30;;;8.40;99.90;;;;;;5002497;28;20100;-55
2021/11/24 11:41:13;;;;;;;8.98;6.85;;;8.40;99.90;;;;;;4979690;28;20640;-54
2021/11/24 11:43:47;;;;;;;7.88;6.95;;;8.40;99.90;;;;;;5023172;28;20071;-54
2021/11/24 11:46:16;;;;;;;8.07;6.20;;;8.40;99.90;;;;;;5005677;28;20060;-54
2021/11/24 11:48:43;;;;;;;7.32;6.63;;;8.40;99.90;;;;;;5027487;28;20157;-54
2021/11/24 11:51:10;;;;;;;7.35;6.35;;;8.40;99.90;;;;;;5016416;28;20138;-55
2021/11/24 11:53:39;;;;;;;7.50;6.07;;;8.50;99.90;;;;;;5005717;28;20634;-59
2021/11/24 11:56:05;;;;;;;8.30;5.97;;;8.40;99.90;;;;;;4994088;28;20053;-59
2021/11/24 11:58:32;;;;;;;7.38;6.25;;;8.50;99.90;;;;;;5013854;28;20050;-60
2021/11/24 12:01:11;;;;;;;7.63;5.85;;;8.40;99.90;;;;;;5007971;28;20041;-59
2021/11/24 12:04:14;;;;;;;6.57;5.63;;;8.40;99.90;;;;;;5010486;28;20037;-59
2021/11/24 12:06:52;;;;;;;;;;;8.40;99.90;;;;;;5019558;28;20485;-58
2021/11/24 12:09:46;;;;;;;8.35;5.40;;;8.40;99.90;;;;;;5023128;28;20020;-59
2021/11/24 12:12:36;;;;;;;8.55;5.70;;;8.40;99.90;;;;;;4999125;28;20068;-54
2021/11/24 12:15:20;;;;;;;7.38;5.40;;;8.40;99.90;;;;;;5023559;28;20108;-53
2021/11/24 12:17:47;;;;;;;7.40;5.45;;;8.40;99.90;;;;;;4999770;28;20057;-58
2021/11/24 12:20:14;;;;;;;5.90;4.65;;;8.40;99.90;;;;;;5018324;28;20764;-59
2021/11/24 12:22:49;;;;;;;5.45;4.50;;;8.40;99.90;;;;;;5023361;28;20042;-58
2021/11/24 12:25:28;;;;;;;7.95;5.03;;;8.40;99.90;;;;;;5003015;28;20508;-59
2021/11/24 12:27:54;;;;;;;6.03;4.90;;;8.40;99.90;;;;;;5022525;28;20906;-58
2021/11/24 12:33:29;;;;;;;6.80;4.80;;;8.30;99.90;;;;;;5013900;28;20075;-57
2021/11/24 12:36:04;;;;;;;5.78;4.20;;;8.40;99.90;;;;;;5013070;28;20049;-55
2021/11/24 12:38:38;;;;;;;8.75;4.75;;;8.40;99.90;;;;;;4984746;28;20444;-59
2021/11/24 12:41:09;;;;;;;6.13;4.25;;;8.30;99.90;;;;;;5027900;28;20208;-53
2021/11/24 12:43:39;;;;;;;5.25;4.22;;;8.30;99.90;;;;;;5033014;28;20069;-57
2021/11/24 12:46:12;;;;;;;6.18;4.30;;;8.30;99.90;;;;;;5017988;28;20083;-58
2021/11/24 12:48:44;;;;;;;6.13;4.38;;;8.30;99.90;;;;;;5010781;28;20468;-58
2021/11/24 12:51:11;;;;;;;;;;;8.30;99.90;;;;;;5012854;28;20037;-60
2021/11/24 12:53:37;;;;;;;5.82;4.47;;;8.20;99.90;;;;;;4995807;28;19917;-54
2021/11/24 12:56:05;;;;;;;7.15;4.75;;;8.30;99.90;;;;;;5028116;28;20049;-58
2021/11/24 12:58:31;;;;;;;6.22;4.10;;;8.30;99.90;;;;;;5002372;28;20049;-58
2021/11/24 13:01:24;;;;;;;6.07;4.20;;;8.30;99.90;;;;;;5034890;28;20060;-55
2021/11/24 13:03:56;;;;;;;7.15;4.05;;;8.30;99.90;;;;;;5005831;28;20544;-55
2021/11/24 13:06:23;;;;;;;;;;;8.30;99.90;;;;;;5011908;28;20557;-55